Time;durP1;ratioP1;P1;durP2;ratioP2;P2;SDS_P1;SDS_P2;PMS_P1;PMS_P2;Temp;Humidity;BMP_temperature;BMP_pressure;BME280_temperature;BME280_humidity;BME280_pressure;Samples;Min_cycle;Max_cycle;Signal;HPM_P1;HPM_P2
2023/08/10 00:02:25;;;;;;;1.65;1.30;;;;;;;;;;5061851;28;20213;-64
2023/08/10 00:04:51;;;;;;;1.13;1.13;;;;;;;;;;5061757;28;20208;-64
2023/08/10 00:07:18;;;;;;;1.25;1.25;;;;;;;;;;5061510;28;20223;-64
2023/08/10 00:09:46;;;;;;;1.60;1.50;;;;;;;;;;5061881;28;20221;-64
2023/08/10 00:12:12;;;;;;;1.67;1.50;;;;;;;;;;5061571;28;20409;-64
2023/08/10 00:14:38;;;;;;;1.48;1.38;;;;;;;;;;5061886;28;20349;-64
2023/08/10 00:17:04;;;;;;;1.40;1.40;;;;;;;;;;5061634;28;20201;-64
2023/08/10 00:19:32;;;;;;;1.80;1.40;;;;;;;;;;5061756;28;20209;-64
2023/08/10 00:21:58;;;;;;;1.70;1.60;;;;;;;;;;5061549;28;20221;-64
2023/08/10 00:24:25;;;;;;;1.58;1.38;;;;;;;;;;5061578;28;20405;-64
2023/08/10 00:26:51;;;;;;;1.88;1.70;;;;;;;;;;5061670;28;20270;-64
2023/08/10 00:29:17;;;;;;;1.85;1.48;;;;;;;;;;5061573;28;20207;-64
2023/08/10 00:31:44;;;;;;;1.55;1.38;;;;;;;;;;5061607;28;20197;-64
2023/08/10 00:34:10;;;;;;;1.95;1.52;;;;;;;;;;5061527;28;20269;-64
2023/08/10 00:36:38;;;;;;;2.70;1.75;;;;;;;;;;5061455;28;20221;-64
2023/08/10 00:39:04;;;;;;;4.45;1.83;;;;;;;;;;5061570;28;20268;-64
2023/08/10 00:41:31;;;;;;;1.85;1.40;;;;;;;;;;5061519;28;20205;-64
2023/08/10 00:43:58;;;;;;;2.40;1.73;;;;;;;;;;5061586;28;20272;-64
2023/08/10 00:46:24;;;;;;;1.52;1.42;;;;;;;;;;5061273;28;20197;-64
2023/08/10 00:48:50;;;;;;;1.27;1.25;;;;;;;;;;5061465;28;20205;-64
2023/08/10 00:51:17;;;;;;;2.58;1.33;;;;;;;;;;5061469;28;20268;-64
2023/08/10 00:53:44;;;;;;;1.73;1.73;;;;;;;;;;5061839;28;20403;-64
2023/08/10 00:56:11;;;;;;;1.48;1.48;;;;;;;;;;5061562;28;20400;-64
2023/08/10 00:58:38;;;;;;;1.65;1.58;;;;;;;;;;5061488;28;20204;-64
2023/08/10 01:01:04;;;;;;;1.73;1.40;;;;;;;;;;5061072;28;20205;-64
2023/08/10 01:03:30;;;;;;;1.23;1.23;;;;;;;;;;5061368;28;20451;-64
2023/08/10 01:06:01;;;;;;;1.55;1.55;;;;;;;;;;5061084;28;20207;-64
2023/08/10 01:08:30;;;;;;;1.88;1.45;;;;;;;;;;5053145;28;20505;-64
2023/08/10 01:11:03;;;;;;;1.30;1.30;;;;;;;;;;5061341;28;20216;-64
2023/08/10 01:13:34;;;;;;;2.42;1.52;;;;;;;;;;5053530;28;20194;-64
2023/08/10 01:16:04;;;;;;;1.50;1.50;;;;;;;;;;5060952;28;20201;-64
2023/08/10 01:18:31;;;;;;;1.77;1.70;;;;;;;;;;5053505;28;20203;-64
2023/08/10 01:20:59;;;;;;;1.77;1.48;;;;;;;;;;5063348;28;20201;-64
2023/08/10 01:23:31;;;;;;;1.60;1.60;;;;;;;;;;5064797;28;20415;-64
2023/08/10 01:25:58;;;;;;;1.67;1.45;;;;;;;;;;5064814;28;20207;-64
2023/08/10 01:28:25;;;;;;;1.50;1.50;;;;;;;;;;5064612;28;20474;-64
2023/08/10 01:30:51;;;;;;;1.75;1.70;;;;;;;;;;5064442;28;20193;-64
2023/08/10 01:33:18;;;;;;;2.10;1.55;;;;;;;;;;5064399;28;20516;-64
2023/08/10 01:35:44;;;;;;;1.80;1.40;;;;;;;;;;5064405;28;20501;-64
2023/08/10 01:38:11;;;;;;;1.88;1.80;;;;;;;;;;5064524;28;20201;-64
2023/08/10 01:40:37;;;;;;;1.63;1.52;;;;;;;;;;5064329;28;20197;-64
2023/08/10 01:43:05;;;;;;;2.08;1.92;;;;;;;;;;5064259;28;20221;-64
2023/08/10 01:45:31;;;;;;;1.95;1.85;;;;;;;;;;5064097;28;20197;-64
2023/08/10 01:48:01;;;;;;;1.42;1.42;;;;;;;;;;5064117;28;20235;-64
2023/08/10 01:50:29;;;;;;;1.80;1.70;;;;;;;;;;5063713;28;20213;-64
2023/08/10 01:52:56;;;;;;;1.77;1.67;;;;;;;;;;5064295;28;20519;-64
2023/08/10 01:55:23;;;;;;;1.45;1.38;;;;;;;;;;5063821;28;20227;-64
2023/08/10 01:57:50;;;;;;;3.63;1.92;;;;;;;;;;5064164;28;20544;-64
2023/08/10 02:00:17;;;;;;;1.48;1.48;;;;;;;;;;5063996;28;20207;-64
2023/08/10 02:02:44;;;;;;;2.03;1.90;;;;;;;;;;5063843;28;20217;-64
2023/08/10 02:05:11;;;;;;;1.88;1.77;;;;;;;;;;5063632;28;20207;-64
2023/08/10 02:07:38;;;;;;;3.42;1.55;;;;;;;;;;5063870;28;20201;-64
2023/08/10 02:10:04;;;;;;;3.05;1.80;;;;;;;;;;5064081;28;20211;-64
2023/08/10 02:12:30;;;;;;;1.90;1.77;;;;;;;;;;5055725;28;20193;-64
2023/08/10 02:14:58;;;;;;;1.75;1.65;;;;;;;;;;5063604;28;20223;-64
2023/08/10 02:17:28;;;;;;;1.77;1.77;;;;;;;;;;5063577;28;20224;-64
2023/08/10 02:19:54;;;;;;;2.10;1.90;;;;;;;;;;5063446;28;20209;-64
2023/08/10 02:22:21;;;;;;;2.08;1.98;;;;;;;;;;5063623;28;20239;-64
2023/08/10 02:24:47;;;;;;;2.28;1.95;;;;;;;;;;5063501;28;20201;-64
2023/08/10 02:27:13;;;;;;;1.88;1.77;;;;;;;;;;5063677;28;20221;-64
2023/08/10 02:29:40;;;;;;;2.03;1.80;;;;;;;;;;5063769;28;20497;-64
2023/08/10 02:32:07;;;;;;;1.95;1.88;;;;;;;;;;5063026;28;20208;-64
2023/08/10 02:34:34;;;;;;;2.30;2.08;;;;;;;;;;5063042;28;20197;-64
2023/08/10 02:37:00;;;;;;;3.03;2.20;;;;;;;;;;5063562;28;20201;-64
2023/08/10 02:39:27;;;;;;;2.78;2.05;;;;;;;;;;5063306;28;20294;-64
2023/08/10 02:41:53;;;;;;;2.03;1.92;;;;;;;;;;5063119;28;20201;-64
2023/08/10 02:44:20;;;;;;;5.20;2.20;;;;;;;;;;5062805;28;20288;-64
2023/08/10 02:46:47;;;;;;;3.13;2.03;;;;;;;;;;5062915;28;20209;-64
2023/08/10 02:49:13;;;;;;;4.47;2.13;;;;;;;;;;5063086;28;20209;-64
2023/08/10 02:51:41;;;;;;;2.10;2.00;;;;;;;;;;5063216;28;20197;-64
2023/08/10 02:54:07;;;;;;;2.35;2.17;;;;;;;;;;5062908;28;20205;-64
2023/08/10 02:56:34;;;;;;;2.05;2.05;;;;;;;;;;5062896;28;20459;-64
2023/08/10 02:59:00;;;;;;;1.92;1.83;;;;;;;;;;5062879;28;20229;-64
2023/08/10 03:01:26;;;;;;;1.98;1.98;;;;;;;;;;5062712;28;20435;-64
2023/08/10 03:03:53;;;;;;;1.73;1.63;;;;;;;;;;5062688;28;20549;-64
2023/08/10 03:06:19;;;;;;;2.03;1.92;;;;;;;;;;5062669;28;20211;-64
2023/08/10 03:08:47;;;;;;;2.05;1.92;;;;;;;;;;5062865;28;20207;-64
2023/08/10 03:11:13;;;;;;;2.50;1.80;;;;;;;;;;5062533;28;20231;-64
2023/08/10 03:13:39;;;;;;;2.45;1.85;;;;;;;;;;5062524;28;20199;-64
2023/08/10 03:16:06;;;;;;;2.45;2.35;;;;;;;;;;5062371;28;20215;-64
2023/08/10 03:18:32;;;;;;;2.40;2.30;;;;;;;;;;5062745;28;20197;-64
2023/08/10 03:20:58;;;;;;;2.22;2.17;;;;;;;;;;5062701;28;20207;-64
2023/08/10 03:23:24;;;;;;;2.95;2.50;;;;;;;;;;5062261;28;20221;-64
2023/08/10 03:25:52;;;;;;;5.10;2.22;;;;;;;;;;5062276;28;20200;-64
2023/08/10 03:28:18;;;;;;;2.63;2.42;;;;;;;;;;5062225;28;20452;-64
2023/08/10 03:30:45;;;;;;;3.25;2.97;;;;;;;;;;5062194;28;20209;-64
2023/08/10 03:33:11;;;;;;;3.53;2.78;;;;;;;;;;5062356;28;20209;-64
2023/08/10 03:35:37;;;;;;;3.97;3.60;;;;;;;;;;5062156;28;20201;-64
2023/08/10 03:38:04;;;;;;;3.85;3.65;;;;;;;;;;5062407;28;20209;-64
2023/08/10 03:40:30;;;;;;;4.30;3.90;;;;;;;;;;5062193;28;20421;-64
2023/08/10 03:42:58;;;;;;;4.55;4.15;;;;;;;;;;5061552;28;20221;-64
2023/08/10 03:45:24;;;;;;;5.90;4.13;;;;;;;;;;5061841;28;20291;-64
2023/08/10 03:47:50;;;;;;;5.95;4.68;;;;;;;;;;5061974;28;20213;-64
2023/08/10 03:50:17;;;;;;;5.38;4.97;;;;;;;;;;5062142;28;20201;-64
2023/08/10 03:52:43;;;;;;;5.63;5.00;;;;;;;;;;5062016;28;20245;-65
2023/08/10 03:55:10;;;;;;;6.43;5.82;;;;;;;;;;5061919;28;20215;-64
2023/08/10 03:57:36;;;;;;;6.95;6.22;;;;;;;;;;5053743;28;20428;-64
2023/08/10 04:00:05;;;;;;;6.25;5.78;;;;;;;;;;5061830;28;20249;-64
2023/08/10 04:02:31;;;;;;;6.32;5.53;;;;;;;;;;5061634;28;20267;-64
2023/08/10 04:04:58;;;;;;;6.43;5.45;;;;;;;;;;5061782;28;20460;-64
2023/08/10 04:07:24;;;;;;;5.10;4.80;;;;;;;;;;5061899;28;20201;-64
2023/08/10 04:09:51;;;;;;;5.88;5.38;;;;;;;;;;5061841;28;20200;-64
2023/08/10 04:12:17;;;;;;;6.20;5.65;;;;;;;;;;5061558;28;20264;-64
2023/08/10 04:14:43;;;;;;;6.47;5.82;;;;;;;;;;5061738;28;20201;-64
2023/08/10 04:17:11;;;;;;;8.85;6.60;;;;;;;;;;5061657;28;20209;-66
2023/08/10 04:19:37;;;;;;;7.82;7.13;;;;;;;;;;5053802;28;20527;-66
2023/08/10 04:22:04;;;;;;;7.18;6.68;;;;;;;;;;5061782;28;20220;-66
2023/08/10 04:24:30;;;;;;;6.72;6.13;;;;;;;;;;5061924;28;20300;-67
2023/08/10 04:26:56;;;;;;;6.65;6.20;;;;;;;;;;5061634;28;20231;-66
2023/08/10 04:29:26;;;;;;;6.97;6.47;;;;;;;;;;5061641;28;20207;-66
2023/08/10 04:31:52;;;;;;;7.32;6.72;;;;;;;;;;5061775;28;20201;-66
2023/08/10 04:34:20;;;;;;;6.68;6.20;;;;;;;;;;5061753;28;20493;-66
2023/08/10 04:36:46;;;;;;;6.00;5.50;;;;;;;;;;5061590;28;20200;-66
2023/08/10 04:39:13;;;;;;;6.18;5.72;;;;;;;;;;5061450;28;20268;-66
2023/08/10 04:41:39;;;;;;;5.93;5.43;;;;;;;;;;5061418;28;20432;-66
2023/08/10 04:44:06;;;;;;;5.60;5.25;;;;;;;;;;5061391;28;20221;-66
2023/08/10 04:46:32;;;;;;;5.22;4.80;;;;;;;;;;5061245;28;20396;-66
2023/08/10 04:48:58;;;;;;;5.20;4.80;;;;;;;;;;5061435;28;20208;-66
2023/08/10 04:51:26;;;;;;;4.82;4.53;;;;;;;;;;5061579;28;20201;-66
2023/08/10 04:53:52;;;;;;;4.40;4.10;;;;;;;;;;5062087;28;20559;-66
2023/08/10 04:56:19;;;;;;;5.05;4.75;;;;;;;;;;5064862;28;20201;-66
2023/08/10 04:58:45;;;;;;;5.15;4.85;;;;;;;;;;5065349;28;20197;-66
2023/08/10 05:01:13;;;;;;;5.30;4.82;;;;;;;;;;5065260;28;20504;-66
2023/08/10 05:03:40;;;;;;;4.85;4.45;;;;;;;;;;5065047;28;20472;-66
2023/08/10 05:06:07;;;;;;;4.43;4.13;;;;;;;;;;5065214;28;20208;-66
2023/08/10 05:08:35;;;;;;;4.05;3.92;;;;;;;;;;5065200;28;20208;-66
2023/08/10 05:11:01;;;;;;;4.60;4.18;;;;;;;;;;5065267;28;20228;-67
2023/08/10 05:13:28;;;;;;;4.70;4.40;;;;;;;;;;5065093;28;20460;-66
2023/08/10 05:15:54;;;;;;;4.45;4.15;;;;;;;;;;5064824;28;20268;-66
2023/08/10 05:18:21;;;;;;;4.10;3.72;;;;;;;;;;5064777;28;20201;-65
2023/08/10 05:20:48;;;;;;;4.10;3.90;;;;;;;;;;5064869;28;20225;-65
2023/08/10 05:23:14;;;;;;;3.88;3.67;;;;;;;;;;5064568;28;20231;-65
2023/08/10 05:25:42;;;;;;;4.30;3.90;;;;;;;;;;5064749;28;20197;-65
2023/08/10 05:28:08;;;;;;;4.60;3.70;;;;;;;;;;5064692;28;20425;-65
2023/08/10 05:30:36;;;;;;;4.32;4.03;;;;;;;;;;5064669;28;20205;-65
2023/08/10 05:33:03;;;;;;;5.05;4.00;;;;;;;;;;5064572;28;20201;-65
2023/08/10 05:35:29;;;;;;;4.22;3.92;;;;;;;;;;5064280;28;20227;-65
2023/08/10 05:37:55;;;;;;;3.78;3.63;;;;;;;;;;5064446;28;20539;-65
2023/08/10 05:40:21;;;;;;;3.78;3.60;;;;;;;;;;5064453;28;20201;-65
2023/08/10 05:42:49;;;;;;;3.65;3.45;;;;;;;;;;5064624;28;20208;-65
2023/08/10 05:45:19;;;;;;;4.25;3.67;;;;;;;;;;5064273;28;20242;-52
2023/08/10 05:47:45;;;;;;;3.38;3.05;;;;;;;;;;5056827;28;20217;-53
2023/08/10 05:50:12;;;;;;;3.72;3.42;;;;;;;;;;5058861;28;20448;-53
2023/08/10 05:52:38;;;;;;;3.85;3.55;;;;;;;;;;5058837;28;20217;-54
2023/08/10 05:55:05;;;;;;;3.67;3.47;;;;;;;;;;5058726;28;20209;-53
2023/08/10 05:57:31;;;;;;;4.13;3.75;;;;;;;;;;5055969;28;20213;-53
2023/08/10 05:59:59;;;;;;;3.17;2.97;;;;;;;;;;5059362;28;20221;-53
2023/08/10 06:02:25;;;;;;;6.47;3.20;;;;;;;;;;5053267;28;20213;-53
2023/08/10 06:04:52;;;;;;;3.50;3.20;;;;;;;;;;5058036;28;20296;-55
2023/08/10 06:07:18;;;;;;;4.07;2.90;;;;;;;;;;5057987;28;20247;-53
2023/08/10 06:09:44;;;;;;;2.92;2.80;;;;;;;;;;5058629;28;20423;-53
2023/08/10 06:12:12;;;;;;;3.28;3.08;;;;;;;;;;5058593;28;20213;-53
2023/08/10 06:14:38;;;;;;;4.45;3.33;;;;;;;;;;5058265;28;20205;-53
2023/08/10 06:17:06;;;;;;;5.20;3.00;;;;;;;;;;5058620;28;20571;-52
2023/08/10 06:19:32;;;;;;;5.28;2.72;;;;;;;;;;5058149;28;20217;-55
2023/08/10 06:21:59;;;;;;;2.95;2.70;;;;;;;;;;5042157;28;20408;-53
2023/08/10 06:24:25;;;;;;;4.60;3.50;;;;;;;;;;5040948;28;20229;-53
2023/08/10 06:26:51;;;;;;;3.05;2.85;;;;;;;;;;5049858;28;20221;-53
2023/08/10 06:29:17;;;;;;;2.92;2.55;;;;;;;;;;5051954;28;20211;-54
2023/08/10 06:31:44;;;;;;;5.38;2.95;;;;;;;;;;5050255;28;20209;-54
2023/08/10 06:34:11;;;;;;;3.40;2.80;;;;;;;;;;5052631;28;20533;-53
2023/08/10 06:36:38;;;;;;;2.67;2.25;;;;;;;;;;5051105;28;20276;-53
2023/08/10 06:39:06;;;;;;;2.72;2.53;;;;;;;;;;5047299;28;20270;-53
2023/08/10 06:41:32;;;;;;;2.42;2.30;;;;;;;;;;5051319;28;20213;-53
2023/08/10 06:43:58;;;;;;;2.80;2.70;;;;;;;;;;5051936;28;20228;-55
2023/08/10 06:46:24;;;;;;;6.43;2.70;;;;;;;;;;5052955;28;20395;-53
2023/08/10 06:48:51;;;;;;;5.05;2.38;;;;;;;;;;5045228;28;20216;-54
2023/08/10 06:51:18;;;;;;;2.70;2.50;;;;;;;;;;5045468;28;20220;-54
2023/08/10 06:53:45;;;;;;;2.33;2.22;;;;;;;;;;5048911;28;20205;-53
2023/08/10 06:56:11;;;;;;;3.33;2.38;;;;;;;;;;5056398;28;20220;-52
2023/08/10 06:58:37;;;;;;;10.45;2.80;;;;;;;;;;5054003;28;20398;-54
2023/08/10 07:01:04;;;;;;;3.15;2.30;;;;;;;;;;5046214;28;20216;-52
2023/08/10 07:03:30;;;;;;;5.78;2.92;;;;;;;;;;5047579;28;20300;-53
2023/08/10 07:05:56;;;;;;;2.42;2.13;;;;;;;;;;5048490;28;20219;-53
2023/08/10 07:08:24;;;;;;;2.47;2.33;;;;;;;;;;5043610;28;20222;-52
2023/08/10 07:10:50;;;;;;;2.63;2.42;;;;;;;;;;5041057;28;20285;-54
2023/08/10 07:13:17;;;;;;;6.35;2.80;;;;;;;;;;5039871;28;20289;-53
2023/08/10 07:15:45;;;;;;;3.03;2.75;;;;;;;;;;5042097;28;20209;-52
2023/08/10 07:18:11;;;;;;;3.13;2.60;;;;;;;;;;5050996;28;20239;-52
2023/08/10 07:20:37;;;;;;;2.58;2.20;;;;;;;;;;5050015;28;20521;-53
2023/08/10 07:23:03;;;;;;;3.35;2.60;;;;;;;;;;5045940;28;20280;-53
2023/08/10 07:25:32;;;;;;;5.50;2.90;;;;;;;;;;5047637;28;20405;-54
2023/08/10 07:27:58;;;;;;;2.88;2.53;;;;;;;;;;5054333;28;20229;-53
2023/08/10 07:30:25;;;;;;;2.78;2.65;;;;;;;;;;5052678;28;20231;-53
2023/08/10 07:32:51;;;;;;;7.30;3.20;;;;;;;;;;5046235;28;20423;-54
2023/08/10 07:35:18;;;;;;;2.50;2.40;;;;;;;;;;5055823;28;20209;-53
2023/08/10 07:37:48;;;;;;;3.42;2.33;;;;;;;;;;5044416;28;20216;-53
2023/08/10 07:40:14;;;;;;;2.33;2.22;;;;;;;;;;5041901;28;20209;-54
2023/08/10 07:42:42;;;;;;;2.65;2.25;;;;;;;;;;5048161;28;20213;-52
2023/08/10 07:45:10;;;;;;;3.08;2.25;;;;;;;;;;5044455;28;20222;-54
2023/08/10 07:47:36;;;;;;;3.22;2.47;;;;;;;;;;5054158;28;20455;-52
2023/08/10 07:50:03;;;;;;;2.58;2.47;;;;;;;;;;5047408;28;20214;-52
2023/08/10 07:52:29;;;;;;;3.72;2.42;;;;;;;;;;5044655;28;20216;-54
2023/08/10 07:54:55;;;;;;;3.33;2.42;;;;;;;;;;5049008;28;20504;-53
2023/08/10 07:57:21;;;;;;;4.15;2.20;;;;;;;;;;5050369;28;20219;-53
2023/08/10 07:59:49;;;;;;;3.13;2.30;;;;;;;;;;5053108;28;20234;-53
2023/08/10 08:02:16;;;;;;;5.60;2.40;;;;;;;;;;5050591;28;20220;-53
2023/08/10 08:04:42;;;;;;;5.63;2.50;;;;;;;;;;5054236;28;20271;-52
2023/08/10 08:07:08;;;;;;;3.60;2.00;;;;;;;;;;5052517;28;20220;-52
2023/08/10 08:09:34;;;;;;;2.67;2.17;;;;;;;;;;5048647;28;20285;-54
2023/08/10 08:12:01;;;;;;;7.18;1.92;;;;;;;;;;5043496;28;20236;-54
2023/08/10 08:14:27;;;;;;;2.53;2.17;;;;;;;;;;5053499;28;20208;-55
2023/08/10 08:16:55;;;;;;;6.47;2.38;;;;;;;;;;5050806;28;20462;-53
2023/08/10 08:19:21;;;;;;;3.13;2.15;;;;;;;;;;5040887;28;20214;-52
2023/08/10 08:21:48;;;;;;;1.98;1.88;;;;;;;;;;5046261;28;20213;-53
2023/08/10 08:24:15;;;;;;;1.95;1.80;;;;;;;;;;5050922;28;20261;-53
2023/08/10 08:26:41;;;;;;;2.33;1.70;;;;;;;;;;5042826;28;20213;-54
2023/08/10 08:29:07;;;;;;;5.75;2.20;;;;;;;;;;5048152;28;20244;-52
2023/08/10 08:31:35;;;;;;;2.55;1.75;;;;;;;;;;5059604;28;20226;-52
2023/08/10 08:34:03;;;;;;;1.33;1.30;;;;;;;;;;5052980;28;20402;-53
2023/08/10 08:36:29;;;;;;;2.17;2.10;;;;;;;;;;5054567;28;20450;-54
2023/08/10 08:38:56;;;;;;;1.90;1.80;;;;;;;;;;5056682;28;20212;-53
2023/08/10 08:41:23;;;;;;;4.63;1.70;;;;;;;;;;5059728;28;20217;-52
2023/08/10 08:43:50;;;;;;;3.63;1.60;;;;;;;;;;5057958;28;20220;-52
2023/08/10 08:46:17;;;;;;;1.58;1.20;;;;;;;;;;5049456;28;20401;-53
2023/08/10 08:48:44;;;;;;;2.45;1.45;;;;;;;;;;5056676;28;20259;-55
2023/08/10 08:51:12;;;;;;;2.28;1.33;;;;;;;;;;5053120;28;20209;-53
2023/08/10 08:53:39;;;;;;;2.97;1.50;;;;;;;;;;5056837;28;20407;-53
2023/08/10 08:56:05;;;;;;;2.88;1.80;;;;;;;;;;5052166;28;20331;-53
2023/08/10 08:58:31;;;;;;;7.07;2.10;;;;;;;;;;5053203;28;20551;-53
2023/08/10 09:00:58;;;;;;;1.40;1.30;;;;;;;;;;5051899;28;20215;-53
2023/08/10 09:03:25;;;;;;;6.35;2.08;;;;;;;;;;5052203;28;20316;-53
2023/08/10 09:05:52;;;;;;;3.10;1.60;;;;;;;;;;5058906;28;20232;-54
2023/08/10 09:08:20;;;;;;;2.13;1.63;;;;;;;;;;5054382;28;20209;-53
2023/08/10 09:10:47;;;;;;;4.80;1.67;;;;;;;;;;5052215;28;20220;-55
2023/08/10 09:13:14;;;;;;;2.67;1.33;;;;;;;;;;5044884;28;20216;-52
2023/08/10 09:15:40;;;;;;;3.97;1.60;;;;;;;;;;5056495;28;20547;-54
2023/08/10 09:18:10;;;;;;;1.88;1.77;;;;;;;;;;5048909;28;20513;-53
2023/08/10 09:20:36;;;;;;;4.82;1.98;;;;;;;;;;5041686;28;20209;-53
2023/08/10 09:23:03;;;;;;;1.98;1.88;;;;;;;;;;5058684;28;20534;-52
2023/08/10 09:25:37;;;;;;;2.67;1.52;;;;;;;;;;5050813;28;20397;-53
2023/08/10 09:28:07;;;;;;;7.10;1.77;;;;;;;;;;5053606;28;20224;-53
2023/08/10 09:30:34;;;;;;;2.92;1.60;;;;;;;;;;5056523;28;20657;-55
2023/08/10 09:33:00;;;;;;;6.10;1.88;;;;;;;;;;5054783;28;20300;-53
2023/08/10 09:35:29;;;;;;;1.63;1.50;;;;;;;;;;5038555;28;20296;-53
2023/08/10 09:37:59;;;;;;;2.03;1.80;;;;;;;;;;5053641;28;20280;-53
2023/08/10 09:40:25;;;;;;;3.55;1.65;;;;;;;;;;5048693;28;20236;-53
2023/08/10 09:42:53;;;;;;;1.80;1.70;;;;;;;;;;5054882;28;20216;-52
2023/08/10 09:45:20;;;;;;;2.20;1.65;;;;;;;;;;5056077;28;20287;-52
2023/08/10 09:47:46;;;;;;;2.00;1.90;;;;;;;;;;5043924;28;20220;-53
2023/08/10 09:50:13;;;;;;;3.75;1.65;;;;;;;;;;5047548;28;20557;-53
2023/08/10 09:52:39;;;;;;;1.70;1.60;;;;;;;;;;5051721;28;20209;-53
2023/08/10 09:55:06;;;;;;;2.20;1.73;;;;;;;;;;5045262;28;20210;-52
2023/08/10 09:57:33;;;;;;;1.20;1.20;;;;;;;;;;5052643;28;20215;-55
2023/08/10 10:00:04;;;;;;;1.58;1.48;;;;;;;;;;5050382;28;20232;-52
2023/08/10 10:02:30;;;;;;;1.63;1.52;;;;;;;;;;5052764;28;20703;-53
2023/08/10 10:04:56;;;;;;;1.90;1.80;;;;;;;;;;5049582;28;20237;-53
2023/08/10 10:07:25;;;;;;;2.70;1.65;;;;;;;;;;5055668;28;20209;-52
2023/08/10 10:09:51;;;;;;;1.70;1.60;;;;;;;;;;5045661;28;20416;-52
2023/08/10 10:12:18;;;;;;;2.38;1.55;;;;;;;;;;5052068;28;20215;-52
2023/08/10 10:14:45;;;;;;;1.77;1.60;;;;;;;;;;5047443;28;20205;-52
2023/08/10 10:17:13;;;;;;;4.63;1.85;;;;;;;;;;5057453;28;20555;-52
2023/08/10 10:19:40;;;;;;;1.52;1.50;;;;;;;;;;5053806;28;20208;-53
2023/08/10 10:22:07;;;;;;;1.67;1.58;;;;;;;;;;5049236;28;20280;-53
2023/08/10 10:24:34;;;;;;;1.60;1.50;;;;;;;;;;5059096;28;20208;-53
2023/08/10 10:27:00;;;;;;;1.73;1.63;;;;;;;;;;5054808;28;20228;-55
2023/08/10 10:29:36;;;;;;;1.30;1.30;;;;;;;;;;5060798;28;20512;-52
2023/08/10 10:32:16;;;;;;;2.47;1.52;;;;;;;;;;5057429;28;20254;-53
2023/08/10 10:34:43;;;;;;;1.88;1.75;;;;;;;;;;5054235;28;20208;-53
2023/08/10 10:37:10;;;;;;;2.05;1.50;;;;;;;;;;5061254;28;20214;-52
2023/08/10 10:39:37;;;;;;;1.50;1.40;;;;;;;;;;5060820;28;20209;-53
2023/08/10 10:42:03;;;;;;;2.88;1.83;;;;;;;;;;5059828;28;20209;-52
2023/08/10 10:44:48;;;;;;;1.90;1.80;;;;;;;;;;5059945;28;20254;-52
2023/08/10 10:47:18;;;;;;;1.77;1.73;;;;;;;;;;5056698;28;20212;-53
2023/08/10 10:49:52;;;;;;;2.35;1.80;;;;;;;;;;5060058;28;20204;-53
2023/08/10 10:52:35;;;;;;;2.65;1.65;;;;;;;;;;5054354;28;20205;-53
2023/08/10 10:55:03;;;;;;;1.70;1.60;;;;;;;;;;5058812;28;20236;-53
2023/08/10 10:57:31;;;;;;;1.70;1.60;;;;;;;;;;5056441;28;20242;-52
2023/08/10 10:59:59;;;;;;;2.00;1.58;;;;;;;;;;5059920;28;20229;-54
2023/08/10 11:02:28;;;;;;;1.60;1.50;;;;;;;;;;5059151;28;20204;-53
2023/08/10 11:04:54;;;;;;;1.92;1.55;;;;;;;;;;5058977;28;20410;-54
2023/08/10 11:07:20;;;;;;;1.58;1.40;;;;;;;;;;5060488;28;20223;-52
2023/08/10 11:09:46;;;;;;;1.50;1.40;;;;;;;;;;5053584;28;20506;-53
2023/08/10 11:12:13;;;;;;;1.45;1.45;;;;;;;;;;5060302;28;20208;-53
2023/08/10 11:14:41;;;;;;;1.30;1.30;;;;;;;;;;5059900;28;20278;-52
2023/08/10 11:17:08;;;;;;;1.58;1.30;;;;;;;;;;5056089;28;20528;-52
2023/08/10 11:19:36;;;;;;;2.22;1.45;;;;;;;;;;5055851;28;20413;-53
2023/08/10 11:22:02;;;;;;;1.55;1.45;;;;;;;;;;5053635;28;20208;-54
2023/08/10 11:24:29;;;;;;;1.40;1.30;;;;;;;;;;5058141;28;20211;-55
2023/08/10 11:26:56;;;;;;;1.58;1.38;;;;;;;;;;5052699;28;20254;-52
2023/08/10 11:29:22;;;;;;;1.60;1.50;;;;;;;;;;5057620;28;20208;-53
2023/08/10 11:31:49;;;;;;;1.33;1.23;;;;;;;;;;5056583;28;20411;-53
2023/08/10 11:34:20;;;;;;;3.40;1.38;;;;;;;;;;5059765;28;20227;-53
2023/08/10 11:36:47;;;;;;;2.72;1.50;;;;;;;;;;5056571;28;20239;-54
2023/08/10 11:39:14;;;;;;;2.53;1.58;;;;;;;;;;5059465;28;20208;-55
2023/08/10 11:41:41;;;;;;;1.42;1.42;;;;;;;;;;5059293;28;20383;-52
2023/08/10 11:44:07;;;;;;;1.60;1.50;;;;;;;;;;5059311;28;20205;-53
2023/08/10 11:46:34;;;;;;;1.63;1.50;;;;;;;;;;5054840;28;20641;-53
2023/08/10 11:49:00;;;;;;;2.03;1.30;;;;;;;;;;5058826;28;20208;-55
2023/08/10 11:51:32;;;;;;;1.42;1.27;;;;;;;;;;5053026;28;20232;-56
2023/08/10 11:54:07;;;;;;;4.00;1.60;;;;;;;;;;5049966;28;20208;-56
2023/08/10 11:56:33;;;;;;;1.60;1.50;;;;;;;;;;5045901;28;20539;-55
2023/08/10 11:59:10;;;;;;;1.20;1.20;;;;;;;;;;5052634;28;20219;-55
2023/08/10 12:01:44;;;;;;;1.50;1.50;;;;;;;;;;5055689;28;20212;-56
2023/08/10 12:04:11;;;;;;;1.52;1.45;;;;;;;;;;5050358;28;20236;-56
2023/08/10 12:06:39;;;;;;;1.38;1.38;;;;;;;;;;5052244;28;20394;-54
2023/08/10 12:09:10;;;;;;;1.83;1.70;;;;;;;;;;5045933;28;20208;-55
2023/08/10 12:11:36;;;;;;;1.40;1.40;;;;;;;;;;5055587;28;20258;-54
2023/08/10 12:14:02;;;;;;;1.77;1.67;;;;;;;;;;5059833;28;20209;-52
2023/08/10 12:16:32;;;;;;;1.25;1.15;;;;;;;;;;5058800;28;20196;-53
2023/08/10 12:18:58;;;;;;;1.90;1.20;;;;;;;;;;5058868;28;20426;-53
2023/08/10 12:21:24;;;;;;;1.35;1.25;;;;;;;;;;5059608;28;20535;-53
2023/08/10 12:23:51;;;;;;;1.30;1.30;;;;;;;;;;5053221;28;20605;-54
2023/08/10 12:26:19;;;;;;;1.65;1.45;;;;;;;;;;5057960;28;20234;-53
2023/08/10 12:28:45;;;;;;;2.10;1.38;;;;;;;;;;5055000;28;20290;-54
2023/08/10 12:31:11;;;;;;;5.28;1.55;;;;;;;;;;5053738;28;20212;-55
2023/08/10 12:33:39;;;;;;;2.08;1.10;;;;;;;;;;5059092;28;20269;-53
2023/08/10 12:36:06;;;;;;;1.67;1.58;;;;;;;;;;5059018;28;20227;-53
2023/08/10 12:38:32;;;;;;;1.85;1.35;;;;;;;;;;5058433;28;20453;-54
2023/08/10 12:40:59;;;;;;;1.38;1.38;;;;;;;;;;5058821;28;20212;-55
2023/08/10 12:43:26;;;;;;;2.35;1.40;;;;;;;;;;5058666;28;20276;-55
2023/08/10 12:45:53;;;;;;;2.38;1.50;;;;;;;;;;5058089;28;20236;-54
2023/08/10 12:48:20;;;;;;;2.47;1.38;;;;;;;;;;5058741;28;20212;-55
2023/08/10 12:50:46;;;;;;;1.63;1.50;;;;;;;;;;5058948;28;20209;-53
2023/08/10 12:53:12;;;;;;;2.40;1.65;;;;;;;;;;5058396;28;20209;-54
2023/08/10 12:55:39;;;;;;;2.63;1.70;;;;;;;;;;5058577;28;20227;-53
2023/08/10 12:58:05;;;;;;;1.90;1.80;;;;;;;;;;5058502;28;20215;-53
2023/08/10 13:00:33;;;;;;;1.77;1.67;;;;;;;;;;5058513;28;20209;-53
2023/08/10 13:02:59;;;;;;;1.30;1.30;;;;;;;;;;5057931;28;20231;-54
2023/08/10 13:05:25;;;;;;;2.25;1.65;;;;;;;;;;5058720;28;20414;-53
2023/08/10 13:07:52;;;;;;;1.48;1.48;;;;;;;;;;5058257;28;20212;-55
2023/08/10 13:10:18;;;;;;;2.28;1.70;;;;;;;;;;5058634;28;20213;-54
2023/08/10 13:12:45;;;;;;;2.38;1.50;;;;;;;;;;5058447;28;20220;-53
2023/08/10 13:15:11;;;;;;;1.83;1.40;;;;;;;;;;5057822;28;20258;-54
2023/08/10 13:17:39;;;;;;;1.63;1.52;;;;;;;;;;5057263;28;20405;-54
2023/08/10 13:20:05;;;;;;;1.77;1.40;;;;;;;;;;5062036;28;20200;-53
2023/08/10 13:22:33;;;;;;;1.33;1.33;;;;;;;;;;5060275;28;20289;-54
2023/08/10 13:25:00;;;;;;;1.52;1.50;;;;;;;;;;5060725;28;20259;-55
2023/08/10 13:27:26;;;;;;;2.55;1.63;;;;;;;;;;5062188;28;20232;-55
2023/08/10 13:29:53;;;;;;;1.60;1.50;;;;;;;;;;5057748;28;20227;-54
2023/08/10 13:32:19;;;;;;;1.92;1.70;;;;;;;;;;5058271;28;20215;-55
2023/08/10 13:34:47;;;;;;;1.80;1.70;;;;;;;;;;5060096;28;20524;-53
2023/08/10 13:37:14;;;;;;;2.38;1.80;;;;;;;;;;5062452;28;20497;-54
2023/08/10 13:39:40;;;;;;;1.73;1.73;;;;;;;;;;5061932;28;20403;-54
2023/08/10 13:42:06;;;;;;;1.80;1.80;;;;;;;;;;5061701;28;20208;-53
2023/08/10 13:44:33;;;;;;;1.70;1.60;;;;;;;;;;5061880;28;20208;-53
2023/08/10 13:46:59;;;;;;;1.98;1.50;;;;;;;;;;5061516;28;20393;-55
2023/08/10 13:49:25;;;;;;;2.40;1.90;;;;;;;;;;5061908;28;20215;-53
2023/08/10 13:51:53;;;;;;;3.47;1.73;;;;;;;;;;5061274;28;20242;-54
2023/08/10 13:54:20;;;;;;;3.83;1.95;;;;;;;;;;5061804;28;20208;-55
2023/08/10 13:57:00;;;;;;;1.98;1.83;;;;;;;;;;5057833;28;20213;-53
2023/08/10 13:59:26;;;;;;;2.03;1.88;;;;;;;;;;5061683;28;20209;-55
2023/08/10 14:01:53;;;;;;;2.00;1.90;;;;;;;;;;5060918;28;20227;-53
2023/08/10 14:04:19;;;;;;;3.85;1.90;;;;;;;;;;5061330;28;20307;-53
2023/08/10 14:06:46;;;;;;;3.65;1.60;;;;;;;;;;5061497;28;20296;-53
2023/08/10 14:09:13;;;;;;;1.75;1.73;;;;;;;;;;5053266;28;20512;-54
2023/08/10 14:11:43;;;;;;;1.73;1.70;;;;;;;;;;5057454;28;20221;-53
2023/08/10 14:14:09;;;;;;;3.72;1.83;;;;;;;;;;5061215;28;20209;-53
2023/08/10 14:16:36;;;;;;;2.58;1.70;;;;;;;;;;5060764;28;20211;-53
2023/08/10 14:19:02;;;;;;;2.80;1.80;;;;;;;;;;5061158;28;20227;-53
2023/08/10 14:21:28;;;;;;;1.80;1.70;;;;;;;;;;5060957;28;20231;-55
2023/08/10 14:23:55;;;;;;;2.63;1.83;;;;;;;;;;5060292;28;20264;-55
2023/08/10 14:26:22;;;;;;;1.65;1.55;;;;;;;;;;5059717;28;20539;-52
2023/08/10 14:28:48;;;;;;;1.80;1.80;;;;;;;;;;5060872;28;20457;-54
2023/08/10 14:31:15;;;;;;;1.70;1.60;;;;;;;;;;5061520;28;20209;-55
2023/08/10 14:33:41;;;;;;;2.47;1.90;;;;;;;;;;5060622;28;20209;-53
2023/08/10 14:36:08;;;;;;;2.00;1.90;;;;;;;;;;5058156;28;20890;-63
2023/08/10 14:38:34;;;;;;;3.25;1.55;;;;;;;;;;5053957;28;20234;-64
2023/08/10 14:41:01;;;;;;;3.42;1.25;;;;;;;;;;5062816;28;20223;-64
2023/08/10 14:43:28;;;;;;;3.30;1.70;;;;;;;;;;5063160;28;20197;-64